createdAt,value
2022-08-09T00:01:25.759Z,49.97
2022-08-09T00:04:06.251Z,50.37
2022-08-09T00:06:23.052Z,50.36
2022-08-09T00:08:44.803Z,50.26
2022-08-09T00:11:25.173Z,50.00
2022-08-09T00:13:38.449Z,49.57
2022-08-09T00:16:03.951Z,49.03
2022-08-09T00:18:30.344Z,49.02
2022-08-09T00:20:56.742Z,49.67
2022-08-09T00:23:58.233Z,49.69
2022-08-09T00:25:51.777Z,49.83
2022-08-09T00:28:16.013Z,49.78
2022-08-09T00:30:42.382Z,49.81
2022-08-09T00:33:08.772Z,49.63
2022-08-09T00:35:43.297Z,50.27
2022-08-09T00:38:01.539Z,50.56
2022-08-09T00:40:31.081Z,50.27
2022-08-09T00:44:12.957Z,50.58
2022-08-09T00:45:20.989Z,51.03
2022-08-09T00:47:47.422Z,51.08
2022-08-09T00:50:14.852Z,51.43
2022-08-09T00:52:40.220Z,51.56
2022-08-09T00:55:06.579Z,51.50
2022-08-09T00:57:34.411Z,51.29
2022-08-09T00:59:59.528Z,51.54
2022-08-09T01:02:25.904Z,51.61
2022-08-09T01:04:52.290Z,51.03
2022-08-09T01:07:18.674Z,50.29
2022-08-09T01:09:46.891Z,51.29
2022-08-09T01:12:12.675Z,51.46
2022-08-09T01:14:37.782Z,51.27
2022-08-09T01:17:04.162Z,51.49
2022-08-09T01:19:42.891Z,51.23
2022-08-09T01:21:56.912Z,51.44
2022-08-09T01:24:23.335Z,51.42
2022-08-09T01:26:53.616Z,51.45
2022-08-09T01:29:16.075Z,51.26
2022-08-09T01:32:30.680Z,51.29
2022-08-09T01:34:09.058Z,51.26
2022-08-09T01:36:35.334Z,51.28
2022-08-09T01:39:01.852Z,50.81
2022-08-09T01:41:28.077Z,50.45
2022-08-09T01:43:54.494Z,50.50
2022-08-09T01:46:23.981Z,50.80
2022-08-09T01:48:47.221Z,50.57
2022-08-09T01:51:13.689Z,50.73
2022-08-09T01:53:41.664Z,51.27
2022-08-09T01:56:06.413Z,51.52
2022-08-09T01:58:32.810Z,51.75
2022-08-09T02:00:59.210Z,52.19
2022-08-09T02:03:25.540Z,52.57
2022-08-09T02:05:53.688Z,52.65
2022-08-09T02:08:35.124Z,52.48
2022-08-09T02:10:51.124Z,52.29
2022-08-09T02:13:11.180Z,51.85
2022-08-09T02:15:49.403Z,51.83
2022-08-09T02:18:10.473Z,52.00
2022-08-09T02:20:32.876Z,52.16
2022-08-09T02:22:56.807Z,52.08
2022-08-09T02:25:23.243Z,52.17
2022-08-09T02:28:00.388Z,51.75
2022-08-09T02:30:15.985Z,52.16
2022-08-09T02:32:42.366Z,52.40
2022-08-09T02:35:17.287Z,52.54
2022-08-09T02:37:36.660Z,52.42
2022-08-09T02:40:03.054Z,52.41
2022-08-09T02:42:27.848Z,52.54
2022-08-09T02:44:54.238Z,52.80
2022-08-09T02:47:20.613Z,53.09
2022-08-09T02:49:46.973Z,52.96
2022-08-09T02:52:13.354Z,52.58
2022-08-09T02:54:54.687Z,52.62
2022-08-09T02:57:13.954Z,52.55
2022-08-09T02:59:36.744Z,52.83
2022-08-09T03:02:06.088Z,53.51
2022-08-09T03:04:28.782Z,53.79
2022-08-09T03:06:51.587Z,54.14
2022-08-09T03:09:18.009Z,54.32
2022-08-09T03:12:05.792Z,54.28
2022-08-09T03:14:10.782Z,54.30
2022-08-09T03:16:41.783Z,54.24
2022-08-09T03:19:03.531Z,54.06
2022-08-09T03:21:39.599Z,54.14
2022-08-09T03:24:04.003Z,54.33
2022-08-09T03:26:32.042Z,54.13
2022-08-09T03:28:49.167Z,54.33
2022-08-09T03:31:21.354Z,54.54
2022-08-09T03:33:53.599Z,55.07
2022-08-09T03:36:16.187Z,55.23
2022-08-09T03:38:34.732Z,55.52
2022-08-09T03:41:01.131Z,55.40
2022-08-09T03:43:32.160Z,55.49
2022-08-09T03:46:04.969Z,55.61
2022-08-09T03:48:30.789Z,55.98
2022-08-09T03:50:46.758Z,56.17
2022-08-09T03:53:13.115Z,55.77
2022-08-09T03:55:40.828Z,55.29
2022-08-09T03:58:16.198Z,54.99
2022-08-09T04:00:32.271Z,54.67
2022-08-09T04:02:58.611Z,54.46
2022-08-09T04:05:27.474Z,54.43
2022-08-09T04:07:56.592Z,54.43
2022-08-09T04:10:20.444Z,54.61
2022-08-09T04:12:44.532Z,54.88
2022-08-09T04:15:11.386Z,55.01
2022-08-09T04:17:36.979Z,55.25
2022-08-09T04:20:03.559Z,55.79
2022-08-09T04:22:29.996Z,56.19
2022-08-09T04:24:56.096Z,56.23
2022-08-09T04:27:22.566Z,56.28
2022-08-09T04:29:50.052Z,56.72
2022-08-09T04:32:15.296Z,56.89
2022-08-09T04:34:54.155Z,56.79
2022-08-09T04:37:08.083Z,56.70
2022-08-09T04:39:40.494Z,56.53
2022-08-09T04:42:02.749Z,56.68
2022-08-09T04:44:27.876Z,56.23
2022-08-09T04:46:58.539Z,55.53
2022-08-09T04:49:30.314Z,55.04
2022-08-09T04:51:47.176Z,54.71
2022-08-09T04:54:13.605Z,54.36
2022-08-09T04:56:40.041Z,54.00
2022-08-09T04:59:12.967Z,53.81
2022-08-09T05:01:32.806Z,53.74
2022-08-09T05:03:59.218Z,53.53
2022-08-09T05:06:27.524Z,53.47
2022-08-09T05:08:51.945Z,53.31
2022-08-09T05:11:18.329Z,53.25
2022-08-09T05:13:44.764Z,53.03
2022-08-09T05:16:11.161Z,52.77
2022-08-09T05:18:58.538Z,52.62
2022-08-09T05:21:09.982Z,52.54
2022-08-09T05:23:55.143Z,52.05
2022-08-09T05:25:56.844Z,51.80
2022-08-09T05:28:23.161Z,51.32
2022-08-09T05:30:51.642Z,51.38
2022-08-09T05:33:15.908Z,50.52
2022-08-09T05:35:47.046Z,49.73
2022-08-09T05:38:08.672Z,49.70
2022-08-09T05:40:35.125Z,48.87
2022-08-09T05:43:01.488Z,48.98
2022-08-09T05:45:52.493Z,48.66
2022-08-09T05:47:59.227Z,48.76
2022-08-09T05:50:31.978Z,48.54
2022-08-09T05:52:52.092Z,48.28
2022-08-09T05:55:20.357Z,48.07
2022-08-09T05:57:50.663Z,47.77
2022-08-09T06:00:06.147Z,47.74
2022-08-09T06:02:32.775Z,46.81
2022-08-09T06:04:58.935Z,47.21
2022-08-09T06:07:25.317Z,46.75
2022-08-09T06:10:01.800Z,46.11
2022-08-09T06:12:18.107Z,46.20
2022-08-09T06:14:44.569Z,45.89
2022-08-09T06:17:10.956Z,45.26
2022-08-09T06:19:37.651Z,45.75
2022-08-09T06:22:04.037Z,44.69
2022-08-09T06:24:30.593Z,44.31
2022-08-09T06:26:57.042Z,44.06
2022-08-09T06:29:23.427Z,43.54
2022-08-09T06:32:08.515Z,43.25
2022-08-09T06:34:16.217Z,42.73
2022-08-09T06:36:42.904Z,42.19
2022-08-09T06:39:11.695Z,42.05
2022-08-09T06:41:56.767Z,41.82
2022-08-09T06:44:01.920Z,41.41
2022-08-09T06:46:39.928Z,41.31
2022-08-09T06:48:58.484Z,41.20
2022-08-09T06:51:21.071Z,40.86
2022-08-09T06:53:49.953Z,40.77
2022-08-09T06:56:13.870Z,40.34
2022-08-09T07:00:46.968Z,39.59
2022-08-09T07:01:07.980Z,39.32
2022-08-09T07:03:33.036Z,39.36
2022-08-09T07:06:03.897Z,39.76
2022-08-09T07:08:25.827Z,39.81
2022-08-09T07:10:52.187Z,39.17
2022-08-09T07:13:29.300Z,38.14
2022-08-09T07:16:35.300Z,38.29
2022-08-09T07:18:11.415Z,38.70
2022-08-09T07:20:39.564Z,38.88
2022-08-09T07:23:04.171Z,38.19
2022-08-09T07:25:30.621Z,37.91
2022-08-09T07:27:57.060Z,37.31
2022-08-09T07:30:24.354Z,37.49
2022-08-09T07:32:51.558Z,38.21
2022-08-09T07:35:16.189Z,37.72
2022-08-09T07:37:43.727Z,37.49
2022-08-09T07:40:08.948Z,37.29
2022-08-09T07:42:35.599Z,37.14
2022-08-09T07:45:06.511Z,36.96
2022-08-09T07:47:28.206Z,36.74
2022-08-09T07:50:07.601Z,36.53
2022-08-09T07:52:20.955Z,36.60
2022-08-09T07:54:51.548Z,36.10
2022-08-09T07:57:14.141Z,36.27
2022-08-09T07:59:52.091Z,36.28
2022-08-09T08:02:07.027Z,35.73
2022-08-09T08:04:33.462Z,35.70
2022-08-09T08:07:00.265Z,35.52
2022-08-09T08:09:38.442Z,35.54
2022-08-09T08:12:24.072Z,35.09
2022-08-09T08:14:18.968Z,35.03
2022-08-09T08:17:00.970Z,35.17
2022-08-09T08:19:11.827Z,34.76
2022-08-09T08:21:39.715Z,33.26
2022-08-09T08:24:12.007Z,32.91
2022-08-09T08:26:54.962Z,32.71
2022-08-09T08:28:57.338Z,33.71
2022-08-09T08:31:24.590Z,33.49
2022-08-09T08:33:54.057Z,33.32
2022-08-09T08:36:28.326Z,32.83
2022-08-09T08:38:43.021Z,33.10
2022-08-09T08:41:09.432Z,33.17
2022-08-09T08:43:36.138Z,31.87
2022-08-09T08:46:10.046Z,31.94
2022-08-09T08:48:29.177Z,31.24
2022-08-09T08:50:55.124Z,31.48
2022-08-09T08:53:22.363Z,31.90
2022-08-09T08:55:48.000Z,31.18
2022-08-09T08:58:14.456Z,31.50
2022-08-09T09:00:40.821Z,31.23
2022-08-09T09:03:08.675Z,30.54
2022-08-09T09:05:59.906Z,29.72
2022-08-09T09:08:00.133Z,30.14
2022-08-09T09:10:26.715Z,29.99
2022-08-09T09:12:52.936Z,29.89
2022-08-09T09:15:28.155Z,29.62
2022-08-09T09:17:51.679Z,28.83
2022-08-09T09:20:15.252Z,28.95
2022-08-09T09:22:38.990Z,28.88
2022-08-09T09:26:01.761Z,28.41
2022-08-09T09:28:05.037Z,29.03
2022-08-09T09:30:14.063Z,28.39
2022-08-09T09:32:34.518Z,26.85
2022-08-09T09:34:50.582Z,26.71
2022-08-09T09:37:16.974Z,26.70
2022-08-09T09:39:55.631Z,26.74
2022-08-09T09:42:11.869Z,26.84
2022-08-09T09:44:36.199Z,26.72
2022-08-09T09:47:02.565Z,26.74
2022-08-09T09:49:55.948Z,26.68
2022-08-09T09:51:55.348Z,26.35
2022-08-09T09:54:21.707Z,25.72
2022-08-09T09:56:53.276Z,26.03
2022-08-09T09:59:16.169Z,25.61
2022-08-09T10:01:41.007Z,25.68
2022-08-09T10:04:09.747Z,24.33
2022-08-09T10:06:33.790Z,23.79
2022-08-09T10:09:00.296Z,24.28
2022-08-09T10:12:00.743Z,24.27
2022-08-09T10:13:53.019Z,24.42
2022-08-09T10:16:58.201Z,24.67
2022-08-09T10:18:51.411Z,25.12
2022-08-09T10:21:12.141Z,25.15
2022-08-09T10:23:38.500Z,24.85
2022-08-09T10:26:08.889Z,24.80
2022-08-09T10:28:31.254Z,25.00
2022-08-09T10:34:04.618Z,25.78
2022-08-09T10:35:50.753Z,25.61
2022-08-09T10:38:33.722Z,25.71
2022-08-09T10:40:44.799Z,25.30
2022-08-09T10:43:10.165Z,25.68
2022-08-09T10:45:49.285Z,25.77
2022-08-09T10:48:19.357Z,25.38
2022-08-09T10:50:32.816Z,25.26
2022-08-09T10:52:55.752Z,25.02
2022-08-09T10:55:22.753Z,24.83
2022-08-09T10:57:48.744Z,25.02
2022-08-09T11:00:14.881Z,25.36
2022-08-09T11:03:11.613Z,25.47
2022-08-09T11:05:07.693Z,25.70
2022-08-09T11:07:57.337Z,26.13
2022-08-09T11:10:00.453Z,26.23
2022-08-09T11:12:29.557Z,26.26
2022-08-09T11:14:53.172Z,26.24
2022-08-09T11:17:19.602Z,26.13
2022-08-09T11:20:07.834Z,26.27
2022-08-09T11:22:21.542Z,26.16
2022-08-09T11:24:38.766Z,25.52
2022-08-09T11:27:06.659Z,25.15
2022-08-09T11:30:04.511Z,24.28
2022-08-09T11:31:58.002Z,24.49
2022-08-09T11:34:24.382Z,24.75
2022-08-09T11:36:50.776Z,25.20
2022-08-09T11:39:17.186Z,25.51
2022-08-09T11:41:43.538Z,25.45
2022-08-09T11:44:09.947Z,25.55
2022-08-09T11:46:36.388Z,25.58
2022-08-09T11:49:05.243Z,25.41
2022-08-09T11:53:01.135Z,25.94
2022-08-09T11:53:58.645Z,25.88
2022-08-09T11:56:22.022Z,25.24
2022-08-09T11:58:50.351Z,25.98
2022-08-09T12:01:15.629Z,25.96
2022-08-09T12:03:57.136Z,26.77
2022-08-09T12:06:07.597Z,26.33
2022-08-09T12:08:34.083Z,26.60
2022-08-09T12:11:00.492Z,26.59
2022-08-09T12:14:08.501Z,26.71
2022-08-09T12:15:53.254Z,26.59
2022-08-09T12:18:29.563Z,26.15
2022-08-09T12:20:46.511Z,26.34
2022-08-09T12:23:12.508Z,26.04
2022-08-09T12:25:38.907Z,25.94
2022-08-09T12:28:58.634Z,25.93
2022-08-09T12:30:36.202Z,26.27
2022-08-09T12:32:58.023Z,26.37
2022-08-09T12:35:24.429Z,26.75
2022-08-09T12:37:53.737Z,26.42
2022-08-09T12:40:17.301Z,26.78
2022-08-09T12:42:43.671Z,26.57
2022-08-09T12:45:34.356Z,26.45
2022-08-09T12:47:44.290Z,26.39
2022-08-09T12:50:03.772Z,26.14
2022-08-09T12:52:42.988Z,25.91
2022-08-09T12:56:02.349Z,25.82
2022-08-09T12:57:23.571Z,25.20
2022-08-09T13:00:03.325Z,25.34
2022-08-09T13:02:16.512Z,25.91
2022-08-09T13:04:42.979Z,25.91
2022-08-09T13:07:09.510Z,26.13
2022-08-09T13:09:38.155Z,24.52
2022-08-09T13:12:02.553Z,25.03
2022-08-09T13:14:43.614Z,25.38
2022-08-09T13:16:56.521Z,25.38
2022-08-09T13:19:21.417Z,26.06
2022-08-09T13:22:35.264Z,26.21
2022-08-09T13:24:44.658Z,26.00
2022-08-09T13:26:40.633Z,26.47
2022-08-09T13:29:07.464Z,25.48
2022-08-09T13:32:20.310Z,25.81
2022-08-09T13:33:59.845Z,25.89
2022-08-09T13:36:41.280Z,26.09
2022-08-09T13:38:56.225Z,26.17
2022-08-09T13:41:57.707Z,26.69
2022-08-09T13:43:45.484Z,27.76
2022-08-09T13:47:16.375Z,28.30
2022-08-09T13:48:38.283Z,27.75
2022-08-09T13:51:04.644Z,29.16
2022-08-09T13:53:41.482Z,32.00
2022-08-09T13:55:57.818Z,30.73
2022-08-09T13:58:24.553Z,31.83
2022-08-09T14:00:55.450Z,28.71
2022-08-09T14:04:02.304Z,31.25
2022-08-09T14:05:58.993Z,31.33
2022-08-09T14:08:15.916Z,32.00
2022-08-09T14:10:49.111Z,31.16
2022-08-09T14:13:12.074Z,28.44
2022-08-09T14:16:09.350Z,27.44
2022-08-09T14:18:18.925Z,28.92
2022-08-09T14:20:29.243Z,30.08
2022-08-09T14:22:53.286Z,29.70
2022-08-09T14:25:19.645Z,30.36
2022-08-09T14:27:57.175Z,31.07
2022-08-09T14:30:36.662Z,30.77
2022-08-09T14:32:38.940Z,30.36
2022-08-09T14:35:05.185Z,29.62
2022-08-09T14:37:41.249Z,30.85
2022-08-09T14:39:58.072Z,30.76
2022-08-09T14:42:31.149Z,31.08
2022-08-09T14:44:59.270Z,30.51
2022-08-09T14:47:42.762Z,30.95
2022-08-09T14:49:49.204Z,30.43
2022-08-09T14:52:09.911Z,30.39
2022-08-09T14:54:36.343Z,30.01
2022-08-09T14:57:02.705Z,29.68
2022-08-09T14:59:29.107Z,27.53
2022-08-09T15:01:55.470Z,28.40
2022-08-09T15:04:23.459Z,29.75
2022-08-09T15:06:49.706Z,29.10
2022-08-09T15:09:14.725Z,27.67
2022-08-09T15:11:43.389Z,26.87
2022-08-09T15:14:13.408Z,27.40
2022-08-09T15:16:33.859Z,28.66
2022-08-09T15:19:05.818Z,29.02
2022-08-09T15:21:56.920Z,29.50
2022-08-09T15:24:05.679Z,28.78
2022-08-09T15:26:31.754Z,29.56
2022-08-09T15:28:45.767Z,29.63
2022-08-09T15:31:16.206Z,29.69
2022-08-09T15:34:32.933Z,29.08
2022-08-09T15:36:05.650Z,29.63
2022-08-09T15:38:31.304Z,30.78
2022-08-09T15:40:57.745Z,31.31
2022-08-09T15:43:24.841Z,30.91
2022-08-09T15:45:51.795Z,30.73
2022-08-09T15:48:28.832Z,31.70
2022-08-09T15:50:43.714Z,32.04
2022-08-09T15:54:02.091Z,32.51
2022-08-09T15:56:10.833Z,30.76
2022-08-09T15:58:02.680Z,30.95
2022-08-09T16:00:29.112Z,31.81
2022-08-09T16:02:56.193Z,31.28
2022-08-09T16:05:21.944Z,32.50
2022-08-09T16:07:49.436Z,32.29
2022-08-09T16:10:38.742Z,32.80
2022-08-09T16:12:41.466Z,33.47
2022-08-09T16:16:10.958Z,32.35
2022-08-09T16:17:33.750Z,31.54
2022-08-09T16:20:05.015Z,30.35
2022-08-09T16:22:27.477Z,31.71
2022-08-09T16:24:57.038Z,31.75
2022-08-09T16:27:19.365Z,32.03
2022-08-09T16:29:50.037Z,33.12
2022-08-09T16:32:33.109Z,32.08
2022-08-09T16:34:53.383Z,31.48
2022-08-09T16:37:04.835Z,31.81
2022-08-09T16:39:31.245Z,31.28
2022-08-09T16:42:02.784Z,31.37
2022-08-09T16:44:25.287Z,31.49
2022-08-09T16:46:55.069Z,31.79
2022-08-09T16:50:30.487Z,30.93
2022-08-09T16:51:43.246Z,32.30
2022-08-09T16:54:25.735Z,31.43
2022-08-09T16:56:36.373Z,32.50
2022-08-09T16:59:06.801Z,31.44
2022-08-09T17:01:28.958Z,31.59
2022-08-09T17:03:55.266Z,31.85
2022-08-09T17:06:31.122Z,32.05
2022-08-09T17:09:01.413Z,33.36
2022-08-09T17:11:15.243Z,33.11
2022-08-09T17:13:40.856Z,32.75
2022-08-09T17:16:07.234Z,32.08
2022-08-09T17:18:33.742Z,30.41
2022-08-09T17:21:00.098Z,30.22
2022-08-09T17:24:20.625Z,31.70
2022-08-09T17:25:53.370Z,32.03
2022-08-09T17:28:19.270Z,30.14
2022-08-09T17:30:47.831Z,29.85
2022-08-09T17:33:22.611Z,30.97
2022-08-09T17:35:40.882Z,31.62
2022-08-09T17:38:13.792Z,32.63
2022-08-09T17:40:32.689Z,33.55
2022-08-09T17:42:59.709Z,34.17
2022-08-09T17:45:27.403Z,34.91
2022-08-09T17:47:55.509Z,35.13
2022-08-09T17:50:17.088Z,34.71
2022-08-09T17:52:43.086Z,34.08
2022-08-09T17:55:09.475Z,34.13
2022-08-09T17:58:03.036Z,34.36
2022-08-09T18:00:05.562Z,34.93
2022-08-09T18:02:33.528Z,35.02
2022-08-09T18:04:55.046Z,35.17
2022-08-09T18:07:23.277Z,35.51
2022-08-09T18:10:04.938Z,35.89
2022-08-09T18:12:17.684Z,35.95
2022-08-09T18:14:53.759Z,35.77
2022-08-09T18:17:07.024Z,36.19
2022-08-09T18:20:56.929Z,36.24
2022-08-09T18:21:59.874Z,36.70
2022-08-09T18:24:27.558Z,36.42
2022-08-09T18:26:52.638Z,36.59
2022-08-09T18:30:40.109Z,36.68
2022-08-09T18:31:54.991Z,36.46
2022-08-09T18:34:11.886Z,36.59
2022-08-09T18:36:38.273Z,36.79
2022-08-09T18:39:04.751Z,37.12
2022-08-09T18:41:34.694Z,37.17
2022-08-09T18:43:57.823Z,37.51
2022-08-09T18:46:50.971Z,37.66
2022-08-09T18:48:50.595Z,37.60
2022-08-09T18:51:17.107Z,37.81
2022-08-09T18:54:00.698Z,37.89
2022-08-09T18:56:09.937Z,38.18
2022-08-09T18:58:36.318Z,38.07
2022-08-09T19:01:02.828Z,38.46
2022-08-09T19:03:29.209Z,38.97
2022-08-09T19:06:03.242Z,39.21
2022-08-09T19:08:22.236Z,39.50
2022-08-09T19:10:48.639Z,39.69
2022-08-09T19:13:22.328Z,39.67
2022-08-09T19:15:41.365Z,39.63
2022-08-09T19:18:17.108Z,39.77
2022-08-09T19:20:39.067Z,40.01
2022-08-09T19:23:00.700Z,40.62
2022-08-09T19:25:41.205Z,40.72
2022-08-09T19:27:53.460Z,40.66
2022-08-09T19:30:22.636Z,41.06
2022-08-09T19:32:46.315Z,40.69
2022-08-09T19:35:12.682Z,40.62
2022-08-09T19:37:52.810Z,40.53
2022-08-09T19:40:05.869Z,39.83
2022-08-09T19:42:32.005Z,39.73
2022-08-09T19:44:58.266Z,40.18
2022-08-09T19:47:27.024Z,40.49
2022-08-09T19:50:08.599Z,40.41
2022-08-09T19:52:18.133Z,40.64
2022-08-09T19:54:43.744Z,40.75
2022-08-09T19:57:10.125Z,40.79
2022-08-09T19:59:58.999Z,40.76
2022-08-09T20:02:05.447Z,40.98
2022-08-09T20:04:35.940Z,41.33
2022-08-09T20:06:55.670Z,41.25
2022-08-09T20:09:45.081Z,41.22
2022-08-09T20:11:51.962Z,41.38
2022-08-09T20:14:15.326Z,41.87
2022-08-09T20:16:53.283Z,42.02
2022-08-09T20:19:47.669Z,42.20
2022-08-09T20:21:54.675Z,42.09
2022-08-09T20:24:00.484Z,41.67
2022-08-09T20:26:26.844Z,41.97
2022-08-09T20:28:53.255Z,42.07
2022-08-09T20:31:19.618Z,42.14
2022-08-09T20:33:46.011Z,42.44
2022-08-09T20:36:12.444Z,42.67
2022-08-09T20:39:17.038Z,42.80
2022-08-09T20:41:05.310Z,42.89
2022-08-09T20:43:31.637Z,43.18
2022-08-09T20:46:15.476Z,42.90
2022-08-09T20:48:24.403Z,42.48
2022-08-09T20:50:55.632Z,42.68
2022-08-09T20:53:22.804Z,42.77
2022-08-09T20:55:47.292Z,43.01
2022-08-09T20:58:19.755Z,43.45
2022-08-09T21:00:36.329Z,44.13
2022-08-09T21:03:02.776Z,44.60
2022-08-09T21:05:53.626Z,44.93
2022-08-09T21:08:00.175Z,45.42
2022-08-09T21:10:22.204Z,45.11
2022-08-09T21:15:15.018Z,43.92
2022-08-09T21:18:11.158Z,43.75
2022-08-09T21:20:22.463Z,43.94
2022-08-09T21:22:38.705Z,43.81
2022-08-09T21:25:00.472Z,44.00
2022-08-09T21:28:00.384Z,44.32
2022-08-09T21:29:53.272Z,44.98
2022-08-09T21:32:19.633Z,45.23
2022-08-09T21:34:48.249Z,45.50
2022-08-09T21:37:18.342Z,45.80
2022-08-09T21:39:41.827Z,45.45
2022-08-09T21:42:10.383Z,45.20
2022-08-09T21:44:34.601Z,44.96
2022-08-09T21:46:57.928Z,44.95
2022-08-09T21:49:24.311Z,45.67
2022-08-09T21:51:51.177Z,45.80
2022-08-09T21:54:17.092Z,45.55
2022-08-09T21:56:54.379Z,45.81
2022-08-09T21:59:09.954Z,45.89
2022-08-09T22:01:59.078Z,45.76
2022-08-09T22:04:02.758Z,45.62
2022-08-09T22:06:29.118Z,45.27
2022-08-09T22:08:55.501Z,45.58
2022-08-09T22:12:06.172Z,45.82
2022-08-09T22:13:48.241Z,46.30
2022-08-09T22:16:14.882Z,46.26
2022-08-09T22:18:52.999Z,46.33
2022-08-09T22:21:09.245Z,46.56
2022-08-09T22:23:35.566Z,46.13
2022-08-09T22:26:07.323Z,46.08
2022-08-09T22:28:32.522Z,45.83
2022-08-09T22:30:53.181Z,45.60
2022-08-09T22:33:19.545Z,45.55
2022-08-09T22:35:59.867Z,45.69
2022-08-09T22:38:12.279Z,45.82
2022-08-09T22:40:38.669Z,45.55
2022-08-09T22:43:16.107Z,45.57
2022-08-09T22:48:14.950Z,45.55
2022-08-09T22:48:18.556Z,45.52
2022-08-09T22:50:24.208Z,45.82
2022-08-09T22:52:57.629Z,45.85
2022-08-09T22:55:21.917Z,45.72
2022-08-09T22:57:59.513Z,45.75
2022-08-09T23:00:09.711Z,45.76
2022-08-09T23:02:36.073Z,45.96
2022-08-09T23:05:02.531Z,46.10
2022-08-09T23:08:21.306Z,46.16
2022-08-09T23:09:55.287Z,46.26
2022-08-09T23:12:21.712Z,46.28
2022-08-09T23:14:48.162Z,46.26
2022-08-09T23:17:14.519Z,46.33
2022-08-09T23:20:07.293Z,46.37
2022-08-09T23:22:07.280Z,46.48
2022-08-09T23:24:33.645Z,46.70
2022-08-09T23:27:00.009Z,46.68
2022-08-09T23:29:26.444Z,46.81
2022-08-09T23:31:54.528Z,46.94
2022-08-09T23:34:19.177Z,47.11
2022-08-09T23:36:45.642Z,47.11
2022-08-09T23:39:12.072Z,47.18
2022-08-09T23:41:38.406Z,47.47
2022-08-09T23:44:04.838Z,47.67
2022-08-09T23:46:31.275Z,47.78
2022-08-09T23:48:57.709Z,47.93
2022-08-09T23:51:24.138Z,48.01
2022-08-09T23:53:52.540Z,48.23
2022-08-09T23:56:16.905Z,48.54
2022-08-09T23:58:43.334Z,48.95
